Time;durP1;ratioP1;P1;durP2;ratioP2;P2;SDS_P1;SDS_P2;PMS_P1;PMS_P2;Temp;Humidity;BMP_temperature;BMP_pressure;BME280_temperature;BME280_humidity;BME280_pressure;Samples;Min_cycle;Max_cycle;Signal;HPM_P1;HPM_P2
2019/06/08 00:01:02;;;;;;;1999.9;999.9;;;;;;;;;;;;;
2019/06/08 00:03:30;;;;;;;1999.9;999.9;;;;;;;;;;;;;
2019/06/08 00:05:53;;;;;;;1999.9;999.9;;;;;;;;;;;;;
2019/06/08 00:08:20;;;;;;;1999.9;999.9;;;;;;;;;;;;;
2019/06/08 00:10:49;;;;;;;1999.9;999.9;;;;;;;;;;;;;
2019/06/08 00:13:11;;;;;;;1999.9;999.9;;;;;;;;;;;;;
2019/06/08 00:15:37;;;;;;;1999.9;999.9;;;;;;;;;;;;;
2019/06/08 00:18:01;;;;;;;1999.9;999.9;;;;;;;;;;;;;
2019/06/08 00:20:31;;;;;;;1999.9;999.9;;;;;;;;;;;;;
2019/06/08 00:22:51;;;;;;;1999.9;999.9;;;;;;;;;;;;;
2019/06/08 00:25:17;;;;;;;1999.9;999.9;;;;;;;;;;;;;
2019/06/08 00:27:42;;;;;;;1999.9;999.9;;;;;;;;;;;;;
2019/06/08 00:30:14;;;;;;;1999.9;999.9;;;;;;;;;;;;;
2019/06/08 00:32:37;;;;;;;1999.9;999.9;;;;;;;;;;;;;
2019/06/08 00:35:10;;;;;;;1999.9;999.9;;;;;;;;;;;;;
2019/06/08 00:37:50;;;;;;;1999.9;999.9;;;;;;;;;;;;;
2019/06/08 00:40:13;;;;;;;1999.9;999.9;;;;;;;;;;;;;
2019/06/08 00:42:38;;;;;;;1999.9;999.9;;;;;;;;;;;;;
2019/06/08 00:45:06;;;;;;;1999.9;999.9;;;;;;;;;;;;;
2019/06/08 00:47:39;;;;;;;1999.9;999.9;;;;;;;;;;;;;
2019/06/08 00:50:17;;;;;;;1999.9;999.9;;;;;;;;;;;;;
2019/06/08 00:52:36;;;;;;;1999.9;999.9;;;;;;;;;;;;;
2019/06/08 00:55:01;;;;;;;1999.9;999.9;;;;;;;;;;;;;
2019/06/08 00:57:36;;;;;;;1999.9;999.9;;;;;;;;;;;;;
2019/06/08 01:00:08;;;;;;;1999.9;999.9;;;;;;;;;;;;;
2019/06/08 01:02:40;;;;;;;1999.9;999.9;;;;;;;;;;;;;
2019/06/08 01:05:10;;;;;;;1999.9;999.9;;;;;;;;;;;;;
2019/06/08 01:07:46;;;;;;;1999.9;999.9;;;;;;;;;;;;;
2019/06/08 01:10:10;;;;;;;1999.9;999.9;;;;;;;;;;;;;
2019/06/08 01:12:40;;;;;;;1999.9;999.9;;;;;;;;;;;;;
2019/06/08 01:15:02;;;;;;;1999.9;937.3;;;;;;;;;;;;;
2019/06/08 01:17:26;;;;;;;1999.9;999.9;;;;;;;;;;;;;
2019/06/08 01:19:57;;;;;;;1999.9;999.9;;;;;;;;;;;;;
2019/06/08 01:22:23;;;;;;;1999.9;999.9;;;;;;;;;;;;;
2019/06/08 01:24:45;;;;;;;1999.9;999.9;;;;;;;;;;;;;
2019/06/08 01:27:09;;;;;;;1999.9;999.9;;;;;;;;;;;;;
2019/06/08 01:29:36;;;;;;;1999.9;999.9;;;;;;;;;;;;;
2019/06/08 01:31:59;;;;;;;1999.9;999.9;;;;;;;;;;;;;
2019/06/08 01:34:25;;;;;;;1999.9;999.9;;;;;;;;;;;;;
2019/06/08 01:36:50;;;;;;;1999.9;999.9;;;;;;;;;;;;;
2019/06/08 01:39:20;;;;;;;1999.9;999.9;;;;;;;;;;;;;
2019/06/08 01:41:56;;;;;;;1999.9;999.9;;;;;;;;;;;;;
2019/06/08 01:44:17;;;;;;;1999.9;999.9;;;;;;;;;;;;;
2019/06/08 01:46:40;;;;;;;1999.9;999.9;;;;;;;;;;;;;
2019/06/08 01:49:03;;;;;;;1999.9;999.9;;;;;;;;;;;;;
2019/06/08 01:51:32;;;;;;;1999.9;999.9;;;;;;;;;;;;;
2019/06/08 01:53:54;;;;;;;1999.9;999.9;;;;;;;;;;;;;
2019/06/08 01:56:27;;;;;;;1999.9;999.9;;;;;;;;;;;;;
2019/06/08 01:58:50;;;;;;;1999.9;999.9;;;;;;;;;;;;;
2019/06/08 02:01:13;;;;;;;1999.9;999.9;;;;;;;;;;;;;
2019/06/08 02:03:43;;;;;;;1999.9;999.9;;;;;;;;;;;;;
2019/06/08 02:06:07;;;;;;;1999.9;999.9;;;;;;;;;;;;;
2019/06/08 02:08:30;;;;;;;1999.9;999.9;;;;;;;;;;;;;
2019/06/08 02:10:53;;;;;;;1999.9;999.9;;;;;;;;;;;;;
2019/06/08 02:13:26;;;;;;;1999.9;999.9;;;;;;;;;;;;;
2019/06/08 02:15:55;;;;;;;1999.9;999.9;;;;;;;;;;;;;
2019/06/08 02:18:21;;;;;;;1999.9;999.9;;;;;;;;;;;;;
2019/06/08 02:20:46;;;;;;;1999.9;989.5;;;;;;;;;;;;;
2019/06/08 02:23:18;;;;;;;1999.9;999.9;;;;;;;;;;;;;
2019/06/08 02:25:39;;;;;;;1999.9;999.9;;;;;;;;;;;;;
2019/06/08 02:28:03;;;;;;;1999.9;999.9;;;;;;;;;;;;;
2019/06/08 02:30:26;;;;;;;1999.9;999.9;;;;;;;;;;;;;
2019/06/08 02:32:55;;;;;;;1999.9;999.9;;;;;;;;;;;;;
2019/06/08 02:35:20;;;;;;;1999.9;999.9;;;;;;;;;;;;;
2019/06/08 02:37:46;;;;;;;1999.9;999.9;;;;;;;;;;;;;
2019/06/08 02:40:18;;;;;;;1999.9;999.9;;;;;;;;;;;;;
2019/06/08 02:42:39;;;;;;;1999.9;999.9;;;;;;;;;;;;;
2019/06/08 02:45:20;;;;;;;1999.9;999.9;;;;;;;;;;;;;
2019/06/08 02:47:57;;;;;;;1999.9;999.9;;;;;;;;;;;;;
2019/06/08 02:50:19;;;;;;;1999.9;999.9;;;;;;;;;;;;;
2019/06/08 02:52:52;;;;;;;1999.9;999.9;;;;;;;;;;;;;
2019/06/08 02:55:15;;;;;;;1999.9;999.9;;;;;;;;;;;;;
2019/06/08 02:57:47;;;;;;;1999.9;999.9;;;;;;;;;;;;;
2019/06/08 03:00:09;;;;;;;1999.9;999.9;;;;;;;;;;;;;
2019/06/08 03:02:39;;;;;;;1999.9;999.9;;;;;;;;;;;;;
2019/06/08 03:05:04;;;;;;;1999.9;999.9;;;;;;;;;;;;;
2019/06/08 03:07:39;;;;;;;1999.9;999.9;;;;;;;;;;;;;
2019/06/08 03:10:02;;;;;;;1999.9;999.9;;;;;;;;;;;;;
2019/06/08 03:12:31;;;;;;;1999.9;999.9;;;;;;;;;;;;;
2019/06/08 03:14:56;;;;;;;1999.9;999.9;;;;;;;;;;;;;
2019/06/08 03:17:20;;;;;;;1999.9;999.9;;;;;;;;;;;;;
2019/06/08 03:19:45;;;;;;;1999.9;999.9;;;;;;;;;;;;;
2019/06/08 03:22:10;;;;;;;1999.9;999.9;;;;;;;;;;;;;
2019/06/08 03:24:42;;;;;;;1999.9;999.9;;;;;;;;;;;;;
2019/06/08 03:27:09;;;;;;;1999.9;999.9;;;;;;;;;;;;;
2019/06/08 03:29:41;;;;;;;1999.9;999.9;;;;;;;;;;;;;
2019/06/08 03:32:07;;;;;;;1999.9;999.9;;;;;;;;;;;;;
2019/06/08 03:34:36;;;;;;;1999.9;999.9;;;;;;;;;;;;;
2019/06/08 03:37:13;;;;;;;1999.9;999.9;;;;;;;;;;;;;
2019/06/08 03:39:45;;;;;;;1999.9;999.9;;;;;;;;;;;;;
2019/06/08 03:42:09;;;;;;;1999.9;999.9;;;;;;;;;;;;;
2019/06/08 03:44:37;;;;;;;1999.9;999.9;;;;;;;;;;;;;
2019/06/08 03:47:02;;;;;;;1999.9;999.9;;;;;;;;;;;;;
2019/06/08 03:49:28;;;;;;;1999.9;999.9;;;;;;;;;;;;;
2019/06/08 03:51:54;;;;;;;1999.9;999.9;;;;;;;;;;;;;
2019/06/08 03:54:20;;;;;;;1999.9;999.9;;;;;;;;;;;;;
2019/06/08 03:56:45;;;;;;;1999.9;999.9;;;;;;;;;;;;;
2019/06/08 03:59:14;;;;;;;1999.9;999.9;;;;;;;;;;;;;
2019/06/08 04:02:37;;;;;;;1999.9;999.9;;;;;;;17.07;53.16406;943.1161;;;;
2019/06/08 04:05:23;;;;;;;1999.9;999.9;;;;;;;17.25;52.15527;943.2205;;;;
2019/06/08 04:07:51;;;;;;;1999.9;910.4;;;;;;;17.04;53.16113;943.2958;;;;
2019/06/08 04:10:18;;;;;;;1999.9;999.9;;;;;;;16.79;50.94043;943.2978;;;;
2019/06/08 04:12:45;;;;;;;1999.9;999.9;;;;;;;16.94;50.59961;943.3711;;;;
2019/06/08 04:15:21;;;;;;;1999.9;999.9;;;;;;;17;50.89551;943.4117;;;;
2019/06/08 04:17:50;;;;;;;1999.9;999.9;;;;;;;16.98;51.69336;943.4867;;;;
2019/06/08 04:20:23;;;;;;;1999.9;999.9;;;;;;;16.76;52.79102;943.3994;;;;
2019/06/08 04:22:56;;;;;;;1999.9;999.9;;;;;;;16.52;53.56055;943.4041;;;;
2019/06/08 04:25:27;;;;;;;1999.9;999.9;;;;;;;16.59;53.70801;943.4559;;;;
2019/06/08 04:28:10;;;;;;;1999.9;999.9;;;;;;;16.6;53.24512;943.4986;;;;
2019/06/08 04:30:34;;;;;;;1999.9;999.9;;;;;;;16.35;53.33008;943.5131;;;;
2019/06/08 04:33:16;;;;;;;1999.9;999.9;;;;;;;16.17;54.03711;943.5497;;;;
2019/06/08 04:35:47;;;;;;;1999.9;999.9;;;;;;;16.2;53.18555;943.5761;;;;
2019/06/08 04:38:16;;;;;;;1999.9;999.9;;;;;;;16.28;54.51367;943.5505;;;;
2019/06/08 04:40:52;;;;;;;1999.9;999.9;;;;;;;16.54;52.2666;943.5776;;;;
2019/06/08 04:43:19;;;;;;;1999.9;999.9;;;;;;;16.53;52.52051;943.5528;;;;
2019/06/08 04:45:51;;;;;;;1999.9;999.9;;;;;;;16.51;52.30762;943.6116;;;;
2019/06/08 04:48:24;;;;;;;1999.9;999.9;;;;;;;16.65;52.40625;943.6265;;;;
2019/06/08 04:51:05;;;;;;;1999.9;999.9;;;;;;;16.97;51.28613;943.7023;;;;
2019/06/08 04:53:29;;;;;;;1999.9;999.9;;;;;;;16.82;52.31152;943.7234;;;;
2019/06/08 04:56:02;;;;;;;1999.9;999.9;;;;;;;16.53;54.86914;943.7546;;;;
2019/06/08 04:58:46;;;;;;;1999.9;999.9;;;;;;;16.43;56.30469;943.6795;;;;
2019/06/08 05:01:27;;;;;;;1999.9;999.9;;;;;;;16.56;55.20898;943.8461;;;;
2019/06/08 05:03:49;;;;;;;1999.9;999.9;;;;;;;16.55;55.65918;943.9024;;;;
2019/06/08 05:06:15;;;;;;;1999.9;866.4;;;;;;;16.56;55.66113;944.0125;;;;
2019/06/08 05:08:45;;;;;;;1999.9;999.9;;;;;;;16.66;57.45605;944.0156;;;;
2019/06/08 05:11:16;;;;;;;1999.9;999.9;;;;;;;16.93;53.37793;944.1057;;;;
2019/06/08 05:13:51;;;;;;;1999.9;999.9;;;;;;;16.82;52.74023;944.0878;;;;
2019/06/08 05:16:24;;;;;;;1999.9;999.9;;;;;;;16.77;57.06445;944.1497;;;;
2019/06/08 05:18:55;;;;;;;1999.9;999.9;;;;;;;16.71;55.74902;944.1685;;;;
2019/06/08 05:21:26;;;;;;;1999.9;999.9;;;;;;;16.48;53.97266;944.2275;;;;
2019/06/08 05:23:58;;;;;;;1999.9;999.9;;;;;;;16.49;56.2998;944.2525;;;;
2019/06/08 05:26:25;;;;;;;1999.9;999.9;;;;;;;15.79;57.01953;944.2746;;;;
2019/06/08 05:29:06;;;;;;;1999.9;999.9;;;;;;;15.93;57.15332;944.3028;;;;
2019/06/08 05:32:04;;;;;;;471.5;30.8;;;;;;;16.21;56.28711;944.3508;;;;
2019/06/08 05:34:27;;;;;;;1999.9;999.9;;;;;;;15.62;58.1416;944.4899;;;;
2019/06/08 05:37:17;;;;;;;1999.9;999.9;;;;;;;15.47;58.65039;944.5399;;;;
2019/06/08 05:39:43;;;;;;;1999.9;999.9;;;;;;;15.4;58.75781;944.5507;;;;
2019/06/08 05:42:12;;;;;;;1999.9;999.9;;;;;;;15.44;58.78711;944.5422;;;;
2019/06/08 05:44:39;;;;;;;1999.9;999.9;;;;;;;15.36;59.65332;944.5547;;;;
2019/06/08 05:47:07;;;;;;;1999.9;999.9;;;;;;;15.53;58.90137;944.6362;;;;
2019/06/08 05:49:44;;;;;;;1999.9;999.9;;;;;;;15.3;59.8877;944.6677;;;;
2019/06/08 05:53:17;;;;;;;1999.9;999.9;;;;;;;15.48;59.0918;944.6923;;;;
2019/06/08 05:55:27;;;;;;;1999.9;999.9;;;;;;;15.51;59.02637;944.7662;;;;
2019/06/08 05:57:53;;;;;;;1999.9;999.9;;;;;;;15.8;57.86328;944.7668;;;;
2019/06/08 06:00:28;;;;;;;1999.9;999.9;;;;;;;15.69;58.24219;944.8038;;;;
2019/06/08 06:02:56;;;;;;;1999.9;999.9;;;;;;;15.47;58.78906;944.8865;;;;
2019/06/08 06:05:32;;;;;;;1999.9;999.9;;;;;;;15.01;60.22754;944.8389;;;;
2019/06/08 06:08:00;;;;;;;1999.9;999.9;;;;;;;14.86;60.87598;944.9355;;;;
2019/06/08 06:10:37;;;;;;;1999.9;999.9;;;;;;;14.87;61.26953;944.93;;;;
2019/06/08 06:13:06;;;;;;;1999.9;999.9;;;;;;;15.13;60.36133;945.0016;;;;
2019/06/08 06:15:31;;;;;;;1999.9;999.9;;;;;;;14.98;60.9043;945.0217;;;;
2019/06/08 06:18:04;;;;;;;1999.9;999.9;;;;;;;15.03;60.62402;945.0631;;;;
2019/06/08 06:20:55;;;;;;;1999.9;999.9;;;;;;;15.04;60.37012;944.9942;;;;
2019/06/08 06:23:32;;;;;;;1999.9;999.9;;;;;;;15.12;60.60059;945.1019;;;;
2019/06/08 06:26:00;;;;;;;1999.9;999.9;;;;;;;15.43;59.96387;945.1939;;;;
2019/06/08 06:28:48;;;;;;;1999.9;999.9;;;;;;;15.03;61.8457;945.1834;;;;
2019/06/08 06:31:24;;;;;;;1999.9;999.9;;;;;;;14.86;62.70996;945.2386;;;;
2019/06/08 06:33:50;;;;;;;1999.9;999.9;;;;;;;14.93;62.7998;945.3006;;;;
2019/06/08 06:36:23;;;;;;;1999.9;999.9;;;;;;;14.98;62.3916;945.2913;;;;
2019/06/08 06:39:05;;;;;;;1999.9;999.9;;;;;;;14.9;62.3457;945.2605;;;;
2019/06/08 06:41:26;;;;;;;1999.9;999.9;;;;;;;15.29;61.5127;945.3842;;;;
2019/06/08 06:43:57;;;;;;;1999.9;999.9;;;;;;;15.3;61.4209;945.4044;;;;
2019/06/08 06:46:29;;;;;;;1999.9;999.9;;;;;;;15.31;61.40234;945.3771;;;;
2019/06/08 06:49:01;;;;;;;1999.9;999.9;;;;;;;15.25;61.81934;945.5463;;;;
2019/06/08 06:51:34;;;;;;;1999.9;999.9;;;;;;;15.51;60.97949;945.5408;;;;
2019/06/08 06:54:16;;;;;;;1999.9;999.9;;;;;;;15.43;61.42969;945.6434;;;;
2019/06/08 06:56:48;;;;;;;1999.9;999.9;;;;;;;15.28;60.77344;945.6074;;;;
2019/06/08 06:59:18;;;;;;;1999.9;999.9;;;;;;;15.14;61.81543;945.6859;;;;
2019/06/08 07:01:43;;;;;;;1999.9;999.9;;;;;;;15.34;61.39258;945.6653;;;;
2019/06/08 07:04:13;;;;;;;1999.9;999.9;;;;;;;15.44;60.47168;945.6642;;;;
2019/06/08 07:06:45;;;;;;;1999.9;999.9;;;;;;;15.43;60.80566;945.6739;;;;
2019/06/08 07:09:13;;;;;;;1999.9;999.9;;;;;;;15.42;60.54004;945.7043;;;;
2019/06/08 07:11:45;;;;;;;1999.9;999.9;;;;;;;15.68;60.44727;945.6662;;;;
2019/06/08 07:14:29;;;;;;;1999.9;999.9;;;;;;;15.9;59.56445;945.7503;;;;
2019/06/08 07:16:51;;;;;;;1999.9;999.9;;;;;;;16.15;59.92285;945.7756;;;;
2019/06/08 07:19:18;;;;;;;1999.9;999.9;;;;;;;16.5;58.26953;945.8677;;;;
2019/06/08 07:21:47;;;;;;;1999.9;999.9;;;;;;;16.41;59.02051;945.6495;;;;
2019/06/08 07:24:40;;;;;;;1999.9;999.9;;;;;;;16.54;56.66504;945.7992;;;;
2019/06/08 09:30:37;;;;;;;1999.9;999.9;;;;;;;17.69;52.83301;946.2647;;;;
2019/06/08 09:33:03;;;;;;;1999.9;999.9;;;;;;;17.81;51.90723;946.2293;;;;
2019/06/08 09:35:42;;;;;;;1999.9;999.9;;;;;;;17.91;52.79004;946.275;;;;
2019/06/08 09:38:12;;;;;;;1498.3;130.7;;;;;;;18.14;50.0293;946.2834;;;;
2019/06/08 09:40:54;;;;;;;1999.9;999.9;;;;;;;18.53;49.73633;946.3134;;;;
2019/06/08 09:43:19;;;;;;;1999.9;999.9;;;;;;;18.38;49.33496;946.3336;;;;
2019/06/08 09:45:45;;;;;;;1999.9;999.9;;;;;;;18.44;49.48047;946.3367;;;;
2019/06/08 09:48:44;;;;;;;1999.9;999.9;;;;;;;18.53;50.73633;946.3392;;;;
2019/06/08 09:51:11;;;;;;;1999.9;999.9;;;;;;;18.3;49.61621;946.3649;;;;
2019/06/08 09:53:52;;;;;;;1999.9;912.8;;;;;;;18.45;47.5166;946.3657;;;;
2019/06/08 09:56:18;;;;;;;1999.9;999.9;;;;;;;18.39;48.4873;946.3328;;;;
2019/06/08 09:58:48;;;;;;;1999.9;999.9;;;;;;;18.53;49.42188;946.3303;;;;
2019/06/08 10:01:18;;;;;;;1999.9;999.9;;;;;;;18.86;48.80664;946.3542;;;;
2019/06/08 10:03:47;;;;;;;1999.9;999.9;;;;;;;19.07;47.01367;946.4291;;;;
2019/06/08 10:06:20;;;;;;;282.1;174.9;;;;;;;18.88;48.6123;946.3337;;;;
2019/06/08 10:08:56;;;;;;;75.2;54.1;;;;;;;19.27;47.02441;946.4014;;;;
2019/06/08 10:11:28;;;;;;;1296.3;506.8;;;;;;;19.34;45.36523;946.3247;;;;
2019/06/08 10:13:52;;;;;;;371.2;204.9;;;;;;;19.16;48.58496;946.3876;;;;
2019/06/08 10:16:23;;;;;;;5.1;1.2;;;;;;;19.02;47.03223;946.2791;;;;
2019/06/08 10:18:53;;;;;;;6.1;1.1;;;;;;;19.45;47.61426;946.3455;;;;
2019/06/08 10:21:21;;;;;;;4.1;1.2;;;;;;;19.34;44.36426;946.3109;;;;
2019/06/08 10:23:54;;;;;;;6.8;1.3;;;;;;;19.48;44.35352;946.4034;;;;
2019/06/08 10:26:28;;;;;;;6.1;1.3;;;;;;;19.72;44.64648;946.3443;;;;
2019/06/08 10:29:00;;;;;;;4;1.1;;;;;;;19.74;46.11816;946.3893;;;;
2019/06/08 10:31:30;;;;;;;4.5;1.3;;;;;;;19.94;44.43457;946.3967;;;;
2019/06/08 10:33:55;;;;;;;4.4;1.1;;;;;;;19.78;42.68164;946.3638;;;;
2019/06/08 10:36:33;;;;;;;7.2;1.3;;;;;;;19.94;43.80566;946.3918;;;;
2019/06/08 10:39:04;;;;;;;3.7;1.2;;;;;;;20.1;43.08691;946.3689;;;;
2019/06/08 10:41:28;;;;;;;4;1.1;;;;;;;20.25;42.14355;946.312;;;;
2019/06/08 10:43:57;;;;;;;5.8;1.1;;;;;;;20.49;42.68066;946.2838;;;;
2019/06/08 10:46:22;;;;;;;5.8;1.1;;;;;;;20.7;41.9873;946.3187;;;;
2019/06/08 10:48:49;;;;;;;4;1;;;;;;;20.8;42.02051;946.2805;;;;
2019/06/08 10:51:13;;;;;;;4.6;1;;;;;;;20.79;42.2998;946.2556;;;;
2019/06/08 10:53:49;;;;;;;3.6;1.1;;;;;;;21.11;42.98535;946.2424;;;;
2019/06/08 10:56:31;;;;;;;2.8;0.9;;;;;;;21.12;41.48926;946.2375;;;;
2019/06/08 10:59:04;;;;;;;3.4;0.9;;;;;;;21.55;39.375;946.2017;;;;
2019/06/08 11:01:37;;;;;;;3.8;0.9;;;;;;;21.06;41.08594;946.2271;;;;
2019/06/08 11:04:02;;;;;;;2.2;0.7;;;;;;;21.37;40.00293;946.1677;;;;
2019/06/08 11:06:31;;;;;;;5.5;1;;;;;;;21.81;39.67969;946.1381;;;;
2019/06/08 11:09:01;;;;;;;2.7;0.8;;;;;;;21.02;39.75;946.1887;;;;
2019/06/08 11:11:31;;;;;;;1.8;0.8;;;;;;;21.24;41.60547;946.1666;;;;
2019/06/08 11:14:14;;;;;;;2.9;0.8;;;;;;;21.22;42.42285;946.1772;;;;
2019/06/08 11:16:41;;;;;;;4;0.8;;;;;;;20.93;42.11426;946.0964;;;;
2019/06/08 11:19:08;;;;;;;3.1;0.9;;;;;;;21.11;42.22461;946.1955;;;;
2019/06/08 11:21:40;;;;;;;3.2;1;;;;;;;21.15;40.1123;946.1559;;;;
2019/06/08 11:24:13;;;;;;;2.3;0.8;;;;;;;20.69;42.43066;946.1563;;;;
2019/06/08 11:26:38;;;;;;;2.1;0.7;;;;;;;21.07;40.46777;946.0916;;;;
2019/06/08 11:29:05;;;;;;;2.3;0.8;;;;;;;21.12;39.92285;946.0899;;;;
2019/06/08 11:31:50;;;;;;;5.6;3.7;;;;;;;21.22;42.41211;946.043;;;;
2019/06/08 11:34:16;;;;;;;3.4;0.9;;;;;;;21.56;40.72266;946.0829;;;;
2019/06/08 11:37:02;;;;;;;124.8;102.2;;;;;;;20.91;40.62695;946.0862;;;;
2019/06/08 11:39:28;;;;;;;1999.9;999.9;;;;;;;20.86;39.38379;946.0322;;;;
2019/06/08 11:41:59;;;;;;;1999.9;829.2;;;;;;;21.2;40.7373;946.0366;;;;
2019/06/08 11:44:25;;;;;;;1999.9;999.9;;;;;;;21.88;40.57617;945.9699;;;;
2019/06/08 11:46:59;;;;;;;1999.9;999.9;;;;;;;21.95;37.21875;946.0129;;;;
2019/06/08 11:49:29;;;;;;;1999.9;999.9;;;;;;;21;38.4375;945.9285;;;;
2019/06/08 11:52:09;;;;;;;1999.9;999.9;;;;;;;21.45;38.95703;946.0496;;;;
2019/06/08 11:54:33;;;;;;;1999.9;999.9;;;;;;;21.78;38.93945;946.0122;;;;
2019/06/08 11:57:00;;;;;;;468.1;256.1;;;;;;;22.37;38.97852;946.0236;;;;
2019/06/08 11:59:39;;;;;;;1999.9;999.9;;;;;;;23.17;36.3584;945.9455;;;;
2019/06/08 12:02:14;;;;;;;1999.9;999.9;;;;;;;22.84;37.31641;945.9377;;;;
2019/06/08 12:04:39;;;;;;;809.7;479;;;;;;;23.03;38.86133;945.8477;;;;
2019/06/08 12:07:09;;;;;;;1999.9;999.4;;;;;;;23.01;36.70898;945.9275;;;;
2019/06/08 12:09:42;;;;;;;1999.9;999.9;;;;;;;23.86;36.5791;945.8542;;;;
2019/06/08 12:12:17;;;;;;;478.3;391;;;;;;;22.55;36.57715;945.8271;;;;
2019/06/08 12:14:49;;;;;;;443.3;294.8;;;;;;;22.57;38.02246;945.7902;;;;
2019/06/08 12:17:40;;;;;;;1052.1;550.1;;;;;;;22.37;36.96094;945.7769;;;;
2019/06/08 12:20:06;;;;;;;380.1;271.8;;;;;;;22.37;37.30176;945.8028;;;;
2019/06/08 12:22:38;;;;;;;697.1;465.1;;;;;;;22.18;37.77734;945.7764;;;;
2019/06/08 12:25:06;;;;;;;944.3;559.2;;;;;;;22.07;38.09668;945.7992;;;;
2019/06/08 12:27:34;;;;;;;823.2;551.7;;;;;;;21.82;38.06348;945.8258;;;;
2019/06/08 12:30:06;;;;;;;1027.2;672.3;;;;;;;22.03;39.83887;945.696;;;;
2019/06/08 12:32:38;;;;;;;1999.9;999.9;;;;;;;22.71;38.64453;945.7554;;;;
2019/06/08 12:35:12;;;;;;;478.5;256.3;;;;;;;23.54;38.17676;945.6536;;;;
2019/06/08 12:37:46;;;;;;;1951;870.2;;;;;;;23.94;35.1377;945.5483;;;;
2019/06/08 12:40:20;;;;;;;1999.9;999.9;;;;;;;22.58;35.82813;945.6982;;;;
2019/06/08 12:42:48;;;;;;;1999.9;999.9;;;;;;;22.82;36.11719;945.5546;;;;
2019/06/08 12:45:15;;;;;;;1999.9;999.9;;;;;;;23.36;34.80957;945.548;;;;
2019/06/08 12:47:55;;;;;;;1999.9;999.9;;;;;;;23.54;36.2832;945.5496;;;;
2019/06/08 12:50:40;;;;;;;1999.9;999.9;;;;;;;23.64;35.19629;945.5457;;;;
2019/06/08 12:53:01;;;;;;;1999.9;900.9;;;;;;;22.92;37.89941;945.5158;;;;
2019/06/08 12:55:35;;;;;;;1263.9;494.5;;;;;;;23.25;36.8584;945.6194;;;;
2019/06/08 12:58:06;;;;;;;1999.9;999.9;;;;;;;24.07;34.5127;945.5388;;;;
2019/06/08 13:00:37;;;;;;;8.8;7.6;;;;;;;23.55;39.01172;945.6186;;;;
2019/06/08 13:03:10;;;;;;;1999.9;999.9;;;;;;;23.35;37.24219;945.6711;;;;
2019/06/08 13:05:36;;;;;;;892.6;527;;;;;;;23.94;36.47949;945.5823;;;;
2019/06/08 13:08:10;;;;;;;3.2;2.1;;;;;;;23.53;38.89258;945.6156;;;;
2019/06/08 13:10:38;;;;;;;234.2;158.7;;;;;;;24.26;38.42578;945.5217;;;;
2019/06/08 13:15:46;;;;;;;1999.9;999.9;;;;;;;24.84;35.43359;945.5461;;;;
2019/06/08 13:18:19;;;;;;;1999.9;999.9;;;;;;;24.56;34.34961;945.533;;;;
2019/06/08 13:20:54;;;;;;;1999.9;999.9;;;;;;;24.49;33.17773;945.4604;;;;
2019/06/08 13:23:23;;;;;;;1999.9;999.9;;;;;;;23.89;35.37012;945.4375;;;;
2019/06/08 13:25:56;;;;;;;1999.9;999.9;;;;;;;24.02;34.97949;945.4808;;;;
2019/06/08 13:28:31;;;;;;;1999.9;999.9;;;;;;;24.55;35.28027;945.4819;;;;
2019/06/08 13:31:05;;;;;;;1999.9;999.9;;;;;;;24.86;35.87109;945.5259;;;;
2019/06/08 13:33:36;;;;;;;1999.9;999.9;;;;;;;24.92;35.09766;945.4911;;;;
2019/06/08 13:36:05;;;;;;;1999.9;999.9;;;;;;;24.76;33.70508;945.4835;;;;
2019/06/08 13:38:30;;;;;;;1999.9;961.9;;;;;;;24.72;37.59277;945.4847;;;;
2019/06/08 13:40:55;;;;;;;5.5;3.7;;;;;;;24.97;35.34863;945.5187;;;;
2019/06/08 13:43:24;;;;;;;3.6;1.3;;;;;;;24.68;34.20508;945.5212;;;;
2019/06/08 13:45:55;;;;;;;5.3;3.5;;;;;;;24.06;35.7832;945.4447;;;;
2019/06/08 13:48:23;;;;;;;6.1;2.2;;;;;;;24.47;35.15527;945.4847;;;;
2019/06/08 13:50:56;;;;;;;9.7;4.4;;;;;;;24.67;34.14648;945.392;;;;
2019/06/08 13:53:25;;;;;;;4.9;1.2;;;;;;;25.26;33.28223;945.4263;;;;
2019/06/08 13:55:52;;;;;;;5.3;1.8;;;;;;;25.44;32.125;945.3583;;;;
2019/06/08 13:58:25;;;;;;;5.3;1.3;;;;;;;24.09;35.56152;945.3714;;;;
2019/06/08 14:00:54;;;;;;;5.5;1.3;;;;;;;24.31;35.99219;945.3503;;;;
2019/06/08 14:03:46;;;;;;;5.1;1.2;;;;;;;24.8;33.61328;945.2394;;;;
2019/06/08 14:06:32;;;;;;;3.2;1.4;;;;;;;24.73;33.23047;945.257;;;;
2019/06/08 14:09:04;;;;;;;5.8;1.4;;;;;;;24.66;35.00586;945.2928;;;;
2019/06/08 14:11:29;;;;;;;4.2;1.4;;;;;;;24.41;36.09375;945.2414;;;;
2019/06/08 14:13:59;;;;;;;2.7;1.3;;;;;;;23.94;35.90332;945.305;;;;
2019/06/08 14:16:30;;;;;;;5.5;1.6;;;;;;;23.57;36.91992;945.2335;;;;
2019/06/08 14:19:20;;;;;;;4.4;1.6;;;;;;;23.24;36.44629;945.2604;;;;
2019/06/08 14:21:56;;;;;;;7.9;1.3;;;;;;;23.36;38.07813;945.1839;;;;
2019/06/08 14:24:24;;;;;;;4.3;1.4;;;;;;;23.33;35.60645;945.2271;;;;
2019/06/08 14:26:57;;;;;;;3.9;1.5;;;;;;;22.86;36.7666;945.19;;;;
2019/06/08 14:29:30;;;;;;;4.6;1.5;;;;;;;22.56;39.17188;945.1936;;;;
2019/06/08 14:32:02;;;;;;;5.3;1.5;;;;;;;22.79;40.07227;945.2025;;;;
2019/06/08 14:34:43;;;;;;;5;1.4;;;;;;;22.64;37.48828;945.1498;;;;
2019/06/08 14:37:07;;;;;;;4.8;1.5;;;;;;;22.18;38.42188;945.1313;;;;
2019/06/08 14:39:45;;;;;;;3.3;1.5;;;;;;;22.34;38.82324;945.0936;;;;
2019/06/08 14:42:53;;;;;;;5.6;1.4;;;;;;;22.26;40.78613;945.0997;;;;
2019/06/08 14:45:44;;;;;;;3.3;1.5;;;;;;;22.65;40.66895;945.0619;;;;
2019/06/08 14:48:42;;;;;;;7.3;1.4;;;;;;;22.61;39.92676;944.9758;;;;
2019/06/08 14:51:20;;;;;;;3.4;1.5;;;;;;;22.35;39.17676;945.0097;;;;
2019/06/08 14:54:14;;;;;;;7.9;1.5;;;;;;;22.51;39.96484;944.9979;;;;
2019/06/08 14:56:47;;;;;;;7.1;1.8;;;;;;;22.59;36.68555;944.9778;;;;
2019/06/08 14:59:17;;;;;;;2.4;1.4;;;;;;;22.56;36.97754;944.9598;;;;
2019/06/08 15:01:46;;;;;;;3.3;1.6;;;;;;;22.26;38.53516;944.887;;;;
2019/06/08 15:04:19;;;;;;;3.8;1.4;;;;;;;22.21;38.46094;944.9536;;;;
2019/06/08 15:06:58;;;;;;;3.5;1.5;;;;;;;22.09;38.54297;944.8707;;;;
2019/06/08 15:09:25;;;;;;;6.6;1.7;;;;;;;22.46;38.44629;944.8701;;;;
2019/06/08 15:11:58;;;;;;;5.5;1.6;;;;;;;22.75;39.50488;944.8358;;;;
2019/06/08 15:14:29;;;;;;;5.4;1.5;;;;;;;22.69;38.80664;944.827;;;;
2019/06/08 15:17:25;;;;;;;5.2;1.5;;;;;;;22.8;37.97168;944.8467;;;;
2019/06/08 15:19:48;;;;;;;3.1;1.4;;;;;;;22.6;37.33203;944.8209;;;;
2019/06/08 15:22:17;;;;;;;2.5;1.4;;;;;;;22.24;37.10352;944.7941;;;;
2019/06/08 15:24:59;;;;;;;3.3;1.6;;;;;;;22.35;39.35254;944.7281;;;;
2019/06/08 15:27:24;;;;;;;4.5;1.7;;;;;;;22.39;38.95703;944.7659;;;;
2019/06/08 15:29:49;;;;;;;4.8;1.6;;;;;;;22.35;39.21191;944.75;;;;
2019/06/08 15:32:31;;;;;;;4.3;1.7;;;;;;;22.7;39.27832;944.712;;;;
2019/06/08 15:34:55;;;;;;;3.2;1.6;;;;;;;22.63;40.12891;944.6353;;;;
2019/06/08 15:37:28;;;;;;;5.2;1.5;;;;;;;22.39;40.54102;944.6361;;;;
2019/06/08 15:40:11;;;;;;;3.5;1.6;;;;;;;22.38;42.61621;944.6461;;;;
2019/06/08 15:42:42;;;;;;;5.7;2.2;;;;;;;22.43;40.19238;944.6014;;;;
2019/06/08 15:45:17;;;;;;;2.9;1.5;;;;;;;22.65;38.36914;944.6332;;;;
2019/06/08 15:47:47;;;;;;;5.5;1.9;;;;;;;22.76;39.91699;944.6479;;;;
2019/06/08 15:50:13;;;;;;;3.6;1.5;;;;;;;22.72;40.41797;944.55;;;;
2019/06/08 15:52:48;;;;;;;7.2;1.7;;;;;;;22.58;39.02051;944.5681;;;;
2019/06/08 15:55:18;;;;;;;4.5;1.5;;;;;;;22.54;38.94727;944.5602;;;;
2019/06/08 15:57:58;;;;;;;3.6;1.6;;;;;;;22.31;41.19043;944.5693;;;;
2019/06/08 16:00:24;;;;;;;4.9;1.5;;;;;;;22.54;40.28418;944.6471;;;;
2019/06/08 16:02:56;;;;;;;3.4;1.5;;;;;;;22.77;39.60059;944.5299;;;;
2019/06/08 16:05:19;;;;;;;4.2;1.6;;;;;;;22.74;39.84473;944.538;;;;
2019/06/08 16:07:51;;;;;;;7;1.9;;;;;;;22.23;41.30078;944.5184;;;;
2019/06/08 16:10:24;;;;;;;5.1;1.5;;;;;;;22.14;41.20996;944.5731;;;;
2019/06/08 16:13:01;;;;;;;3.3;1.7;;;;;;;22.5;43.28418;944.5574;;;;
2019/06/08 16:15:27;;;;;;;3.8;1.6;;;;;;;22.34;42.92969;944.6213;;;;
2019/06/08 16:17:58;;;;;;;4.9;1.7;;;;;;;22.25;42.81543;944.6074;;;;
2019/06/08 16:20:26;;;;;;;4;1.8;;;;;;;22.36;44.35059;944.5363;;;;
2019/06/08 16:22:55;;;;;;;4;1.7;;;;;;;22;43.97461;944.5995;;;;
2019/06/08 16:25:21;;;;;;;4.1;1.8;;;;;;;22.22;42.96387;944.5072;;;;
2019/06/08 16:27:48;;;;;;;4.5;1.7;;;;;;;22.43;43.2666;944.5874;;;;
2019/06/08 16:30:16;;;;;;;3.8;2;;;;;;;22.51;43.16797;944.5692;;;;
2019/06/08 16:33:08;;;;;;;4.8;2.2;;;;;;;22.56;43.24316;944.5842;;;;
2019/06/08 16:35:30;;;;;;;3.4;1.9;;;;;;;22.5;43.03809;944.6183;;;;
2019/06/08 16:37:56;;;;;;;4;1.6;;;;;;;22.57;43.0918;944.5781;;;;
2019/06/08 16:40:24;;;;;;;5.5;1.8;;;;;;;22.36;41.98047;944.6063;;;;
2019/06/08 16:42:56;;;;;;;4;1.9;;;;;;;21.88;43.01367;944.5765;;;;
2019/06/08 16:45:24;;;;;;;5.3;2.1;;;;;;;21.37;45.30469;944.6248;;;;
2019/06/08 16:47:56;;;;;;;7.1;2.1;;;;;;;20.95;47.62402;944.5867;;;;
2019/06/08 16:50:31;;;;;;;5.7;1.9;;;;;;;20.85;47.6709;944.5653;;;;
2019/06/08 16:53:04;;;;;;;5.7;2.4;;;;;;;20.5;47.36426;944.5869;;;;
2019/06/08 16:55:36;;;;;;;6.2;1.9;;;;;;;20.6;46.80371;944.5994;;;;
2019/06/08 16:58:11;;;;;;;13.8;5.6;;;;;;;20.68;47.67578;944.5433;;;;
2019/06/08 17:00:37;;;;;;;20.1;7.4;;;;;;;20.2;48.53613;944.6011;;;;
2019/06/08 17:03:14;;;;;;;11.7;4.6;;;;;;;20.12;48.84082;944.6243;;;;
2019/06/08 17:05:43;;;;;;;10.7;3.2;;;;;;;20.21;48.18652;944.5822;;;;
2019/06/08 17:08:30;;;;;;;4.9;2;;;;;;;19.56;50.42285;944.58;;;;
2019/06/08 17:10:57;;;;;;;7.2;2.1;;;;;;;19.69;49.97168;944.5814;;;;
2019/06/08 17:13:30;;;;;;;4.4;1.9;;;;;;;19.67;49.84277;944.5446;;;;
2019/06/08 17:16:02;;;;;;;3.8;1.8;;;;;;;19.76;49.31445;944.5513;;;;
2019/06/08 17:18:26;;;;;;;4.3;1.8;;;;;;;19.98;48.81445;944.5801;;;;
2019/06/08 17:21:05;;;;;;;14.1;2.4;;;;;;;19.3;49.9043;944.5192;;;;
2019/06/08 17:23:32;;;;;;;5.2;1.9;;;;;;;19.09;50.04395;944.5146;;;;